createdAt,value
2022-12-08T13:27:53.491Z,20.96
2022-12-08T13:31:02.593Z,20.97
2022-12-08T13:34:05.868Z,21.07
2022-12-08T13:37:11.462Z,20.77
2022-12-08T13:40:24.487Z,20.67
2022-12-08T13:43:47.276Z,20.62
2022-12-08T13:47:31.768Z,20.60
2022-12-08T13:51:45.430Z,20.60
2022-12-08T13:57:18.926Z,20.56
2022-12-08T14:00:22.853Z,20.54
2022-12-08T14:03:25.034Z,20.51
2022-12-08T14:06:47.865Z,20.48
2022-12-08T14:09:50.138Z,20.50
2022-12-08T14:12:56.329Z,20.45
2022-12-08T14:15:58.484Z,20.45
2022-12-08T14:19:18.396Z,20.44
2022-12-08T14:22:20.528Z,20.44
2022-12-08T14:25:23.517Z,20.40
2022-12-08T14:28:25.772Z,20.42
2022-12-08T14:31:29.264Z,20.50
2022-12-08T14:34:40.261Z,20.62
2022-12-08T14:37:53.354Z,20.70
2022-12-08T14:41:06.707Z,20.54
2022-12-08T14:44:23.837Z,20.46
2022-12-08T14:47:30.633Z,20.44
2022-12-08T14:50:36.678Z,20.42
2022-12-08T14:53:58.765Z,20.44
2022-12-08T14:57:01.666Z,20.43
2022-12-08T15:00:09.075Z,20.64
2022-12-08T15:03:12.289Z,20.53
2022-12-08T15:06:14.621Z,20.43
2022-12-08T15:09:29.324Z,20.41
2022-12-08T15:12:33.172Z,20.38
2022-12-08T15:15:53.201Z,20.36
2022-12-08T15:19:27.561Z,20.34
2022-12-08T15:22:31.212Z,20.30
2022-12-08T15:25:33.480Z,20.26
2022-12-08T15:28:35.540Z,20.25
2022-12-08T15:31:37.771Z,20.22
2022-12-08T15:34:39.875Z,20.17
2022-12-08T15:37:42.079Z,20.17
2022-12-08T15:40:44.165Z,20.14
2022-12-08T15:43:46.750Z,20.13
2022-12-08T15:46:50.069Z,20.11
2022-12-08T15:49:55.155Z,20.12
2022-12-08T15:52:57.335Z,20.09
2022-12-08T15:56:27.042Z,20.11
2022-12-08T15:59:25.104Z,20.08
2022-12-08T16:02:34.342Z,20.06
2022-12-08T16:06:10.289Z,20.08
2022-12-08T16:09:25.832Z,20.06
2022-12-08T16:16:11.527Z,20.01
2022-12-08T16:19:14.108Z,20.00
2022-12-08T16:26:08.874Z,20.01
2022-12-08T16:29:04.380Z,19.98
2022-12-08T16:32:06.882Z,19.99
2022-12-08T16:35:11.000Z,19.97
2022-12-08T16:38:16.502Z,19.98
2022-12-08T16:41:37.256Z,19.96
2022-12-08T16:44:42.015Z,19.96
2022-12-08T16:47:46.809Z,19.94
2022-12-08T16:50:48.921Z,19.94
2022-12-08T16:53:51.427Z,19.94
2022-12-08T16:56:53.521Z,19.94
2022-12-08T16:59:55.622Z,19.92
2022-12-08T17:02:58.975Z,19.92
2022-12-08T17:06:01.139Z,19.91
2022-12-08T17:09:03.455Z,19.93
2022-12-08T17:12:05.719Z,19.92
2022-12-08T17:15:11.735Z,19.92
2022-12-08T17:18:13.881Z,19.91
2022-12-08T17:21:17.172Z,19.92
2022-12-08T17:24:22.255Z,19.91
2022-12-08T17:27:25.100Z,19.89
2022-12-08T17:30:27.143Z,19.89
2022-12-08T17:33:29.292Z,19.90
2022-12-08T17:36:31.899Z,19.88
2022-12-08T17:39:34.032Z,19.90
2022-12-08T17:42:36.181Z,19.89
2022-12-08T17:45:45.951Z,19.87
2022-12-08T17:48:48.136Z,19.86
2022-12-08T17:51:53.392Z,19.86
2022-12-08T17:54:55.500Z,19.88
2022-12-08T17:57:57.608Z,19.86
2022-12-08T18:01:00.149Z,19.87
2022-12-08T18:04:03.077Z,19.86
2022-12-08T18:07:05.269Z,19.85
2022-12-08T18:10:07.942Z,19.86
2022-12-08T18:13:10.215Z,19.85
2022-12-08T18:16:12.691Z,19.85
2022-12-08T18:19:15.699Z,19.84
2022-12-08T18:22:17.802Z,19.85
2022-12-08T18:25:19.931Z,19.84
2022-12-08T18:28:22.027Z,19.83
2022-12-08T18:31:24.582Z,19.83
2022-12-08T18:34:26.789Z,19.82
2022-12-08T18:37:28.885Z,19.82
2022-12-08T18:40:31.129Z,19.83
2022-12-08T18:43:33.503Z,19.81
2022-12-08T18:46:35.700Z,19.82
2022-12-08T18:49:37.836Z,19.81
2022-12-08T18:52:40.356Z,19.82
2022-12-08T18:55:42.454Z,19.82
2022-12-08T18:58:44.519Z,19.80
2022-12-08T19:01:46.730Z,19.81
2022-12-08T19:04:48.827Z,19.79
2022-12-08T19:07:52.097Z,19.80
2022-12-08T19:10:54.207Z,19.80
2022-12-08T19:13:56.937Z,19.79
2022-12-08T19:16:59.695Z,19.77
2022-12-08T19:20:02.233Z,19.80
2022-12-08T19:23:04.377Z,19.79
2022-12-08T19:26:07.018Z,19.79
2022-12-08T19:29:09.456Z,19.79
2022-12-08T19:32:11.869Z,19.79
2022-12-08T19:35:13.983Z,19.78
2022-12-08T19:38:16.593Z,19.78
2022-12-08T19:41:37.105Z,19.77
2022-12-08T19:44:54.213Z,19.78
2022-12-08T19:47:56.420Z,19.78
2022-12-08T19:50:58.742Z,19.77
2022-12-08T19:54:00.854Z,19.77
2022-12-08T19:57:03.007Z,19.77
2022-12-08T20:00:06.246Z,19.76
2022-12-08T20:03:16.205Z,19.73
2022-12-08T20:06:18.971Z,19.77
2022-12-08T20:09:21.434Z,19.75
2022-12-08T20:12:23.496Z,19.75
2022-12-08T20:15:25.588Z,19.75
2022-12-08T20:18:28.764Z,19.75
2022-12-08T20:21:30.928Z,19.74
2022-12-08T20:24:33.098Z,19.73
2022-12-08T20:27:35.211Z,19.73
2022-12-08T20:30:41.692Z,19.71
2022-12-08T20:33:43.915Z,19.72
2022-12-08T20:36:46.140Z,19.72
2022-12-08T20:39:48.732Z,19.72
2022-12-08T20:42:50.879Z,19.73
2022-12-08T20:45:52.998Z,19.72
2022-12-08T20:48:56.157Z,19.72
2022-12-08T20:51:58.350Z,19.71
2022-12-08T20:55:00.578Z,19.72
2022-12-08T20:58:02.851Z,19.70
2022-12-08T21:01:09.224Z,19.72
2022-12-08T21:04:12.655Z,19.71
2022-12-08T21:07:15.217Z,19.70
2022-12-08T21:10:17.388Z,19.71
2022-12-08T21:13:19.715Z,19.70
2022-12-08T21:16:22.087Z,19.72
2022-12-08T21:19:24.936Z,19.70
2022-12-08T21:22:27.123Z,19.71
2022-12-08T21:25:29.478Z,19.71
2022-12-08T21:28:31.557Z,19.69
2022-12-08T21:31:33.823Z,19.70
2022-12-08T21:34:36.168Z,19.70
2022-12-08T21:37:38.352Z,19.70
2022-12-08T21:40:40.611Z,19.70
2022-12-08T21:43:43.218Z,19.69
2022-12-08T21:46:45.900Z,19.69
2022-12-08T21:49:48.070Z,19.69
2022-12-08T21:52:50.466Z,19.68
2022-12-08T21:55:52.563Z,19.65
2022-12-08T21:58:54.699Z,19.65
2022-12-08T22:01:56.956Z,19.68
2022-12-08T22:04:59.307Z,19.66
2022-12-08T22:08:01.659Z,19.67
2022-12-08T22:11:04.569Z,19.67
2022-12-08T22:14:10.998Z,19.67
2022-12-08T22:17:17.303Z,19.65
2022-12-08T22:20:19.784Z,19.67
2022-12-08T22:23:22.121Z,19.67
2022-12-08T22:26:24.170Z,19.66
2022-12-08T22:29:26.266Z,19.66
2022-12-08T22:32:31.122Z,19.66
2022-12-08T22:35:33.239Z,19.67
2022-12-08T22:38:35.291Z,19.66
2022-12-08T22:41:37.318Z,19.65
2022-12-08T22:44:39.550Z,19.65
2022-12-08T22:47:41.594Z,19.65
2022-12-08T22:50:43.641Z,19.63
2022-12-08T22:53:46.810Z,19.65
2022-12-08T22:56:48.855Z,19.64
2022-12-08T22:59:50.901Z,19.65
2022-12-08T23:02:53.025Z,19.62
2022-12-08T23:05:55.347Z,19.65
2022-12-08T23:08:58.525Z,19.64
2022-12-08T23:12:00.729Z,19.65
2022-12-08T23:15:02.979Z,19.64
2022-12-08T23:18:05.912Z,19.64
2022-12-08T23:21:11.128Z,19.63
2022-12-08T23:24:13.314Z,19.64
2022-12-08T23:27:15.425Z,19.64
2022-12-08T23:30:17.719Z,19.65
2022-12-08T23:33:19.967Z,19.65
2022-12-08T23:36:24.941Z,19.64
2022-12-08T23:39:27.139Z,19.65
2022-12-08T23:42:30.491Z,19.66
2022-12-08T23:45:32.974Z,19.65
2022-12-08T23:48:35.163Z,19.66
2022-12-08T23:51:37.251Z,19.66
2022-12-08T23:54:40.063Z,19.66
2022-12-08T23:57:42.102Z,19.66
